Time;durP1;ratioP1;P1;durP2;ratioP2;P2;SDS_P1;SDS_P2;PMS_P1;PMS_P2;Temp;Humidity;BMP_temperature;BMP_pressure;BME280_temperature;BME280_humidity;BME280_pressure;Samples;Min_cycle;Max_cycle;Signal;HPM_P1;HPM_P2
2021/07/30 00:01:33;;;;;;;12.73;6.67;;;;;;;;;;4905205;29;20923;-92
2021/07/30 00:04:02;;;;;;;7.13;6.50;;;15.00;99.90;;;;;;4922339;29;20279;-92
2021/07/30 00:06:28;;;;;;;9.53;6.83;;;;;;;;;;4921855;29;20530;-93
2021/07/30 00:08:54;;;;;;;6.20;5.87;;;;;;;;;;4904720;29;20435;-92
2021/07/30 00:11:22;;;;;;;8.50;7.70;;;;;;;;;;4903475;29;20412;-92
2021/07/30 00:13:48;;;;;;;7.53;5.90;;;;;;;;;;4919891;29;20412;-89
2021/07/30 00:16:13;;;;;;;5.97;5.57;;;15.30;91.80;;;;;;4903184;29;20431;-91
2021/07/30 00:18:39;;;;;;;8.20;5.70;;;;;;;;;;4919674;29;20455;-91
2021/07/30 00:21:05;;;;;;;6.13;5.53;;;;;;;;;;4902275;29;20270;-91
2021/07/30 00:23:31;;;;;;;7.07;6.53;;;15.60;90.70;;;;;;4902373;29;20486;-91
2021/07/30 00:26:01;;;;;;;6.40;6.00;;;14.50;90.70;;;;;;4919742;29;20431;-91
2021/07/30 00:28:27;;;;;;;8.13;5.93;;;15.60;99.90;;;;;;4902663;29;20180;-91
2021/07/30 00:30:52;;;;;;;8.77;7.07;;;15.70;90.60;;;;;;4904162;29;20467;-90
2021/07/30 00:33:18;;;;;;;7.30;6.70;;;;;;;;;;4903156;29;20198;-91
2021/07/30 00:35:44;;;;;;;7.83;6.27;;;15.60;90.50;;;;;;4919604;29;20176;-90
2021/07/30 00:38:09;;;;;;;9.73;6.67;;;14.60;90.90;;;;;;4902130;29;20459;-91
2021/07/30 00:40:36;;;;;;;5.97;5.57;;;;;;;;;;4902379;29;20182;-91
2021/07/30 00:43:04;;;;;;;9.70;6.40;;;15.10;90.20;;;;;;4902358;29;20659;-91
2021/07/30 00:45:30;;;;;;;8.63;5.57;;;15.70;99.90;;;;;;4902115;29;20428;-91
2021/07/30 00:47:59;;;;;;;6.37;6.07;;;16.20;92.00;;;;;;4902452;29;20436;-91
2021/07/30 00:50:25;;;;;;;6.73;6.23;;;14.30;90.00;;;;;;4902378;29;20623;-91
2021/07/30 00:52:54;;;;;;;6.63;5.80;;;15.10;91.10;;;;;;4902067;29;20440;-90
2021/07/30 00:55:20;;;;;;;6.60;6.13;;;16.10;91.20;;;;;;4919279;29;20183;-91
2021/07/30 00:57:51;;;;;;;9.00;6.37;;;15.70;91.20;;;;;;4902917;29;20424;-91
2021/07/30 01:00:18;;;;;;;7.77;7.00;;;16.00;99.90;;;;;;4919167;29;20423;-92
2021/07/30 01:02:58;;;;;;;6.57;5.90;;;16.10;88.50;;;;;;4918765;29;20471;-92
2021/07/30 01:05:24;;;;;;;6.30;5.60;;;;;;;;;;4918553;29;20919;-92
2021/07/30 01:07:50;;;;;;;6.80;6.50;;;16.10;88.00;;;;;;4901695;29;20435;-92
2021/07/30 01:10:15;;;;;;;6.37;5.60;;;15.00;88.70;;;;;;4901833;29;20428;-91
2021/07/30 01:12:44;;;;;;;6.73;6.23;;;;;;;;;;4901696;29;20204;-93
2021/07/30 01:15:10;;;;;;;6.93;6.23;;;16.20;87.20;;;;;;4901792;29;20187;-93
2021/07/30 01:17:36;;;;;;;7.50;5.37;;;16.30;89.10;;;;;;4918419;29;20446;-92
2021/07/30 01:20:02;;;;;;;5.67;5.37;;;16.20;99.70;;;;;;4901664;29;20424;-92
2021/07/30 01:22:31;;;;;;;5.93;5.47;;;16.40;87.30;;;;;;4901813;29;20982;-90
2021/07/30 01:24:57;;;;;;;6.97;6.37;;;15.20;84.60;;;;;;4918913;29;20915;-90
2021/07/30 01:27:23;;;;;;;9.37;6.10;;;15.50;84.60;;;;;;4918639;29;20423;-91
2021/07/30 01:29:52;;;;;;;7.17;6.57;;;15.90;84.80;;;;;;4902470;29;20180;-91
2021/07/30 01:32:19;;;;;;;6.80;6.40;;;14.30;82.80;;;;;;4902258;29;20183;-91
2021/07/30 01:34:48;;;;;;;6.97;5.77;;;;;;;;;;4901664;29;20958;-91
2021/07/30 01:37:14;;;;;;;6.00;5.60;;;;;;;;;;4901811;29;20420;-91
2021/07/30 01:39:39;;;;;;;6.50;5.90;;;16.70;83.40;;;;;;4919092;29;20846;-91
2021/07/30 01:42:05;;;;;;;6.03;5.70;;;19.00;88.20;;;;;;4918494;29;20412;-91
2021/07/30 01:44:31;;;;;;;9.20;5.80;;;18.60;87.90;;;;;;4901934;29;20176;-91
2021/07/30 01:46:56;;;;;;;5.83;5.30;;;19.50;90.40;;;;;;4901585;29;20187;-91
2021/07/30 01:49:22;;;;;;;9.63;6.03;;;15.40;80.00;;;;;;4901319;29;20243;-91
2021/07/30 01:51:48;;;;;;;7.73;6.77;;;;;;;;;;4901580;29;20187;-91
2021/07/30 01:54:14;;;;;;;7.10;5.70;;;;;;;;;;4901511;29;20468;-92
2021/07/30 01:56:43;;;;;;;5.53;5.03;;;16.90;81.70;;;;;;4901876;29;20769;-91
2021/07/30 01:59:09;;;;;;;6.57;5.90;;;;;;;;;;4902012;29;20432;-92
2021/07/30 02:01:35;;;;;;;6.43;6.03;;;;;;;;;;4901645;29;20439;-91
2021/07/30 02:04:01;;;;;;;8.57;5.47;;;;;;;;;;4902291;29;20562;-91
2021/07/30 02:06:27;;;;;;;9.83;5.93;;;;;;;;;;4918118;29;20479;-92
2021/07/30 02:08:53;;;;;;;7.80;5.20;;;;;;;;;;4917984;29;20420;-92
2021/07/30 02:11:19;;;;;;;5.53;5.03;;;16.90;77.70;;;;;;4918610;29;20910;-92
2021/07/30 02:16:29;;;;;;;5.43;5.03;;;16.90;77.10;;;;;;4918679;29;20239;-91
2021/07/30 02:18:55;;;;;;;7.27;5.50;;;16.90;78.90;;;;;;4901210;29;20432;-91
2021/07/30 02:21:21;;;;;;;8.70;5.27;;;15.50;75.70;;;;;;4919335;29;20187;-91
2021/07/30 02:23:47;;;;;;;7.90;6.00;;;;;;;;;;4926284;29;20232;-90
2021/07/30 02:26:13;;;;;;;5.33;5.03;;;17.00;76.20;;;;;;4913023;29;20504;-91
2021/07/30 02:28:38;;;;;;;10.73;5.30;;;18.20;79.00;;;;;;4907784;29;20462;-91
2021/07/30 02:31:04;;;;;;;6.27;5.80;;;;;;;;;;4905420;29;20179;-91
2021/07/30 02:33:30;;;;;;;6.53;5.87;;;17.10;75.30;;;;;;4904764;29;20180;-91
2021/07/30 02:35:55;;;;;;;5.60;5.20;;;16.70;75.40;;;;;;4921807;29;20900;-91
2021/07/30 02:38:21;;;;;;;9.33;5.57;;;;;;;;;;4922669;29;20176;-91
2021/07/30 02:40:47;;;;;;;5.33;5.10;;;;;;;;;;4922069;29;20641;-91
2021/07/30 02:43:13;;;;;;;7.03;5.40;;;17.10;74.80;;;;;;4905944;29;20479;-90
2021/07/30 02:45:39;;;;;;;9.43;5.40;;;;;;;;;;4913190;29;20461;-91
2021/07/30 02:48:05;;;;;;;5.10;4.87;;;;;;;;;;4928474;29;20199;-90
2021/07/30 02:50:31;;;;;;;5.80;5.27;;;17.00;75.00;;;;;;4914984;29;20491;-91
2021/07/30 02:52:56;;;;;;;5.87;4.90;;;18.70;79.80;;;;;;4912252;29;20424;-92
2021/07/30 02:55:22;;;;;;;5.33;4.87;;;18.20;83.00;;;;;;4907327;29;20184;-92
2021/07/30 02:57:47;;;;;;;5.57;5.07;;;17.70;79.30;;;;;;4922177;29;20172;-92
2021/07/30 03:00:14;;;;;;;6.20;5.80;;;;;;;;;;4906822;29;20187;-92
2021/07/30 03:02:40;;;;;;;5.70;5.37;;;;;;;;;;4907594;29;20219;-91
2021/07/30 03:05:06;;;;;;;6.73;6.20;;;16.60;77.20;;;;;;4906905;29;20420;-91
2021/07/30 03:07:32;;;;;;;6.77;6.20;;;;;;;;;;4908501;29;20423;-91
2021/07/30 03:09:58;;;;;;;10.90;5.60;;;;;;;;;;4906404;29;20480;-91
2021/07/30 03:12:24;;;;;;;6.00;5.60;;;;;;;;;;4904775;29;20420;-92
2021/07/30 03:14:49;;;;;;;6.43;5.87;;;16.30;79.20;;;;;;4923280;29;20624;-91
2021/07/30 03:17:15;;;;;;;6.97;5.67;;;;;;;;;;4905573;29;20472;-90
2021/07/30 03:19:41;;;;;;;5.17;4.53;;;;;;;;;;4906262;29;20204;-93
2021/07/30 03:22:07;;;;;;;5.77;4.93;;;16.40;78.90;;;;;;4905137;29;20912;-91
2021/07/30 03:24:32;;;;;;;7.40;6.70;;;17.60;84.10;;;;;;4905242;29;20427;-91
2021/07/30 03:26:58;;;;;;;10.53;5.60;;;16.20;80.90;;;;;;4923840;29;20200;-90
2021/07/30 03:29:24;;;;;;;6.57;5.43;;;;;;;;;;4907401;29;20199;-92
2021/07/30 03:31:51;;;;;;;7.63;5.80;;;16.10;80.90;;;;;;4907246;29;20412;-91
2021/07/30 03:34:17;;;;;;;6.73;5.70;;;16.00;80.80;;;;;;4906764;29;20428;-91
2021/07/30 03:36:43;;;;;;;6.80;5.70;;;;;;;;;;4918926;29;20424;-91
2021/07/30 03:39:10;;;;;;;6.40;5.43;;;15.90;82.10;;;;;;4922051;29;20495;-91
2021/07/30 03:41:36;;;;;;;7.97;5.20;;;;;;;;;;4913401;29;20468;-92
2021/07/30 03:44:02;;;;;;;8.57;5.80;;;;;;;;;;4905066;29;20902;-91
2021/07/30 03:46:28;;;;;;;6.20;5.70;;;;;;;;;;4905703;29;20427;-91
2021/07/30 03:48:54;;;;;;;8.67;5.87;;;15.80;82.90;;;;;;4905188;29;20507;-90
2021/07/30 03:51:20;;;;;;;11.47;7.60;;;;;;;;;;4904535;29;20428;-91
2021/07/30 03:53:46;;;;;;;5.60;5.40;;;;;;;;;;4903966;29;20239;-91
2021/07/30 03:56:16;;;;;;;5.80;5.40;;;15.70;85.50;;;;;;4922186;29;20884;-91
2021/07/30 03:58:42;;;;;;;6.67;6.00;;;;;;;;;;4922123;29;20448;-92
2021/07/30 04:01:09;;;;;;;8.13;5.73;;;;;;;;;;4905417;29;20420;-91
2021/07/30 04:03:35;;;;;;;6.37;5.93;;;15.60;88.40;;;;;;4923501;29;20468;-90
2021/07/30 04:06:02;;;;;;;8.83;6.17;;;15.60;89.30;;;;;;4904170;29;20446;-91
2021/07/30 04:08:28;;;;;;;6.77;6.07;;;;;;;;;;4904220;29;20439;-90
2021/07/30 04:10:54;;;;;;;6.67;6.20;;;15.60;89.00;;;;;;4905225;29;20412;-91
2021/07/30 04:13:19;;;;;;;8.17;7.20;;;18.40;93.40;;;;;;4906766;29;20439;-91
2021/07/30 04:15:45;;;;;;;10.97;6.80;;;15.40;99.90;;;;;;4905761;29;20643;-91
2021/07/30 04:18:10;;;;;;;8.03;6.70;;;17.60;93.00;;;;;;4906750;29;20684;-92
2021/07/30 04:20:39;;;;;;;11.83;6.30;;;15.30;90.80;;;;;;4906314;29;20186;-92
2021/07/30 04:23:05;;;;;;;9.70;6.03;;;;;;;;;;4915611;29;20220;-90
2021/07/30 04:25:34;;;;;;;6.93;6.33;;;;;;;;;;4918613;29;20431;-90
2021/07/30 04:28:00;;;;;;;10.60;7.00;;;;;;;;;;4910499;29;20911;-92
2021/07/30 04:30:27;;;;;;;9.40;6.80;;;;;;;;;;4905971;29;20507;-92
2021/07/30 04:32:53;;;;;;;8.13;6.57;;;;;;;;;;4904734;29;20503;-92
2021/07/30 04:35:19;;;;;;;7.60;6.13;;;;;;;;;;4922528;29;20766;-92
2021/07/30 04:37:45;;;;;;;6.90;6.40;;;;;;;;;;4921721;29;20450;-92
2021/07/30 04:40:11;;;;;;;8.60;6.60;;;15.80;89.30;;;;;;4905778;29;20420;-91
2021/07/30 04:42:36;;;;;;;6.37;5.87;;;15.80;92.20;;;;;;4905485;29;20460;-88
2021/07/30 04:45:08;;;;;;;10.60;6.50;;;14.90;88.70;;;;;;4906297;29;20420;-92
2021/07/30 04:47:34;;;;;;;8.00;6.43;;;;;;;;;;4903935;29;20192;-90
2021/07/30 04:50:00;;;;;;;9.20;5.80;;;;;;;;;;4905027;29;20472;-92
2021/07/30 04:52:26;;;;;;;8.10;6.67;;;;;;;;;;4922151;29;20506;-91
2021/07/30 04:54:52;;;;;;;6.17;5.60;;;;;;;;;;4905590;29;20420;-93
2021/07/30 04:57:17;;;;;;;7.47;6.90;;;16.10;84.80;;;;;;4905980;29;20422;-91
2021/07/30 04:59:43;;;;;;;9.77;5.87;;;;;;;;;;4906069;29;20431;-91
2021/07/30 05:02:09;;;;;;;5.90;5.40;;;;;;;;;;4921201;29;20176;-90
2021/07/30 05:04:38;;;;;;;6.73;6.00;;;16.60;81.70;;;;;;4922084;29;20431;-92
2021/07/30 05:07:07;;;;;;;9.23;6.60;;;17.00;84.70;;;;;;4906067;29;20507;-90
2021/07/30 05:09:33;;;;;;;6.13;5.63;;;;;;;;;;4922832;29;20455;-91
2021/07/30 05:11:59;;;;;;;5.60;5.20;;;;;;;;;;4232412;29;10000713;-93
2021/07/30 05:14:25;;;;;;;8.03;6.00;;;16.80;78.00;;;;;;4922799;29;20541;-92
2021/07/30 05:16:51;;;;;;;38.77;8.33;;;;;;;;;;4907095;29;20427;-91
2021/07/30 05:19:17;;;;;;;5.53;5.10;;;;;;;;;;4940336;29;20733;-91
2021/07/30 05:21:43;;;;;;;5.90;5.50;;;;;;;;;;4940413;29;20415;-90
2021/07/30 05:24:09;;;;;;;5.40;5.00;;;;;;;;;;4941135;29;20478;-91
2021/07/30 05:26:37;;;;;;;5.00;4.70;;;;;;;;;;4940779;29;20446;-92
2021/07/30 05:29:07;;;;;;;9.87;5.57;;;17.90;69.50;;;;;;4924733;29;20423;-90
2021/07/30 05:31:32;;;;;;;5.80;4.53;;;18.20;83.30;;;;;;4925040;29;20419;-91
2021/07/30 05:33:58;;;;;;;4.37;4.03;;;18.20;73.50;;;;;;4924175;29;20431;-91
2021/07/30 05:36:24;;;;;;;6.87;5.93;;;;;;;;;;4921425;29;20210;-92
2021/07/30 05:38:50;;;;;;;4.77;3.97;;;;;;;;;;4938962;29;20273;-88
2021/07/30 05:41:22;;;;;;;15.40;5.17;;;18.70;60.80;;;;;;4929453;29;20423;-91
2021/07/30 05:43:51;;;;;;;4.63;4.20;;;18.80;85.00;;;;;;4932620;29;20556;-92
2021/07/30 05:46:20;;;;;;;4.80;4.50;;;;;;;;;;4945058;29;20438;-90
2021/07/30 05:48:47;;;;;;;5.50;5.10;;;19.00;59.50;;;;;;4923537;29;20562;-90
2021/07/30 05:51:13;;;;;;;5.83;5.00;;;19.40;60.70;;;;;;4922491;29;20435;-91
2021/07/30 05:53:40;;;;;;;8.00;5.13;;;19.60;70.70;;;;;;4939983;29;20862;-90
2021/07/30 05:56:06;;;;;;;6.17;5.37;;;;;;;;;;4938631;29;20412;-88
2021/07/30 05:58:32;;;;;;;6.00;5.37;;;;;;;;;;4918221;29;20473;-92
2021/07/30 06:00:58;;;;;;;4.77;4.00;;;20.20;56.30;;;;;;4915880;29;20435;-91
2021/07/30 06:03:24;;;;;;;5.00;4.73;;;20.40;57.40;;;;;;4927791;29;20479;-92
2021/07/30 06:05:50;;;;;;;4.50;4.13;;;;;;;;;;4931017;29;20585;-93
2021/07/30 06:08:16;;;;;;;7.47;4.47;;;21.80;63.50;;;;;;4916441;29;20187;-91
2021/07/30 06:10:41;;;;;;;4.87;4.07;;;21.20;53.70;;;;;;4947650;29;20446;-91
2021/07/30 06:13:07;;;;;;;6.17;5.00;;;21.70;52.70;;;;;;4930830;29;20218;-89
2021/07/30 06:15:33;;;;;;;4.00;3.60;;;22.20;54.90;;;;;;4906813;29;20322;-89
2021/07/30 06:18:02;;;;;;;3.73;3.60;;;22.70;50.40;;;;;;4921031;29;20176;-92
2021/07/30 06:20:28;;;;;;;4.17;3.10;;;22.50;50.20;;;;;;4928346;29;20179;-90
2021/07/30 06:22:54;;;;;;;4.03;3.73;;;23.00;54.00;;;;;;4924001;29;20997;-92
2021/07/30 06:25:20;;;;;;;3.83;3.63;;;;;;;;;;4893419;29;20455;-93
2021/07/30 06:27:45;;;;;;;3.60;3.40;;;23.30;48.50;;;;;;4941298;29;20183;-90
2021/07/30 06:30:12;;;;;;;6.03;4.10;;;25.80;51.20;;;;;;4934023;29;20556;-91
2021/07/30 06:32:38;;;;;;;3.67;3.47;;;;;;;;;;4906268;29;20197;-95
2021/07/30 06:35:05;;;;;;;3.20;3.10;;;23.50;47.90;;;;;;4905167;29;20519;-91
2021/07/30 06:37:35;;;;;;;6.47;4.17;;;23.70;48.30;;;;;;4904527;29;20424;-92
2021/07/30 06:40:01;;;;;;;3.57;3.37;;;;;;;;;;4921686;29;20424;-88
2021/07/30 06:42:27;;;;;;;3.50;3.27;;;;;;;;;;4905989;29;20499;-94
2021/07/30 06:44:53;;;;;;;4.37;3.97;;;;;;;;;;4904859;29;20436;-93
2021/07/30 06:47:21;;;;;;;4.67;3.70;;;23.20;47.80;;;;;;4923807;29;20609;-92
2021/07/30 06:49:47;;;;;;;6.10;4.53;;;23.10;48.20;;;;;;4907163;29;20483;-94
2021/07/30 06:52:13;;;;;;;3.73;3.53;;;;;;;;;;4905896;29;20436;-92
2021/07/30 06:54:41;;;;;;;4.17;3.80;;;;;;;;;;4917654;29;20531;-91
2021/07/30 06:57:07;;;;;;;7.73;4.23;;;;;;;;;;4926298;29;20450;-93
2021/07/30 06:59:33;;;;;;;3.67;3.57;;;;;;;;;;4916637;29;20431;-92
2021/07/30 07:02:04;;;;;;;4.20;3.90;;;22.90;50.60;;;;;;4905567;29;20412;-93
2021/07/30 07:04:30;;;;;;;3.63;3.40;;;;;;;;;;4907833;29;20482;-91
2021/07/30 07:06:57;;;;;;;4.20;3.17;;;;;;;;;;4904641;29;20503;-90
2021/07/30 07:09:26;;;;;;;4.73;3.20;;;23.50;47.20;;;;;;4905738;29;20455;-91
2021/07/30 07:11:52;;;;;;;3.33;3.13;;;;;;;;;;4924632;29;20424;-94
2021/07/30 07:14:18;;;;;;;3.00;2.80;;;23.10;50.60;;;;;;4918349;29;20400;-91
2021/07/30 07:16:43;;;;;;;3.53;3.30;;;23.30;47.90;;;;;;4920970;29;20432;-94
2021/07/30 07:19:10;;;;;;;3.60;3.37;;;;;;;;;;4914589;29;20615;-89
2021/07/30 07:21:39;;;;;;;6.87;3.40;;;24.90;46.30;;;;;;4906606;29;20311;-91
2021/07/30 07:24:06;;;;;;;5.10;2.97;;;25.00;50.90;;;;;;4924333;29;20476;-94
2021/07/30 07:26:32;;;;;;;6.80;2.97;;;;;;;;;;4908622;29;20891;-93
2021/07/30 07:28:58;;;;;;;2.93;2.73;;;;;;;;;;4908237;29;20432;-90
2021/07/30 07:31:24;;;;;;;3.27;3.10;;;;;;;;;;4923241;29;20490;-93
2021/07/30 07:33:50;;;;;;;3.83;2.97;;;;;;;;;;4908828;29;20456;-92
2021/07/30 07:36:17;;;;;;;3.53;3.10;;;;;;;;;;4911030;29;20423;-90
2021/07/30 07:38:43;;;;;;;3.50;3.30;;;;;;;;;;4919645;29;20416;-89
2021/07/30 07:41:10;;;;;;;3.50;3.20;;;;;;;;;;4916399;29;20427;-93
2021/07/30 07:43:41;;;;;;;3.07;2.93;;;;;;;;;;4930864;29;20518;-90
2021/07/30 07:46:07;;;;;;;3.03;2.93;;;;;;;;;;4944892;29;20408;-89
2021/07/30 07:48:33;;;;;;;3.10;3.00;;;;;;;;;;4926163;29;20846;-92
2021/07/30 07:51:01;;;;;;;3.37;3.20;;;;;;;;;;4942507;29;20503;-90
2021/07/30 07:53:27;;;;;;;2.93;2.80;;;;;;;;;;4925226;29;20927;-89
2021/07/30 07:56:00;;;;;;;4.13;3.90;;;;;;;;;;4925950;29;20411;-92
2021/07/30 07:58:27;;;;;;;3.30;3.10;;;28.30;39.40;;;;;;4928287;29;20462;-92
2021/07/30 08:00:53;;;;;;;3.90;3.60;;;29.90;41.10;;;;;;4933115;29;20475;-91
2021/07/30 08:03:19;;;;;;;3.03;2.93;;;;;;;;;;4929427;29;20531;-95
2021/07/30 08:05:45;;;;;;;2.83;2.73;;;;;;;;;;4911537;29;20190;-93
2021/07/30 08:08:11;;;;;;;6.63;3.27;;;28.20;38.80;;;;;;4911320;29;20417;-90
2021/07/30 08:10:38;;;;;;;3.97;3.00;;;28.50;40.40;;;;;;4905529;29;20432;-94
2021/07/30 08:13:04;;;;;;;3.43;3.27;;;29.40;42.30;;;;;;4919728;29;20263;-89
2021/07/30 08:15:30;;;;;;;3.10;2.90;;;;;;;;;;4919328;29;20456;-90
2021/07/30 08:17:56;;;;;;;5.33;3.10;;;28.40;38.60;;;;;;4902429;29;20187;-88
2021/07/30 08:20:21;;;;;;;3.60;2.80;;;30.00;39.70;;;;;;4919439;29;20420;-90
2021/07/30 08:22:47;;;;;;;4.00;2.73;;;28.60;39.60;;;;;;4922215;29;20222;-93
2021/07/30 08:25:13;;;;;;;3.83;3.60;;;;;;;;;;4928553;29;20285;-93
2021/07/30 08:27:39;;;;;;;3.40;3.20;;;28.80;38.00;;;;;;4925073;29;20182;-94
2021/07/30 08:30:05;;;;;;;3.47;3.37;;;31.40;42.50;;;;;;4941345;29;20494;-92
2021/07/30 08:32:33;;;;;;;4.23;4.03;;;28.60;39.50;;;;;;4939548;29;20435;-91
2021/07/30 08:34:59;;;;;;;2.97;2.83;;;29.90;38.90;;;;;;4584058;29;10000540;-90
2021/07/30 08:37:25;;;;;;;3.30;3.10;;;30.70;38.60;;;;;;4923779;29;20171;-91
2021/07/30 08:39:50;;;;;;;3.13;3.00;;;30.90;38.00;;;;;;4939629;29;20426;-92
2021/07/30 08:42:18;;;;;;;2.87;2.67;;;29.10;36.80;;;;;;4941978;29;20175;-94
2021/07/30 08:44:45;;;;;;;3.47;3.17;;;31.20;39.20;;;;;;4941086;29;20218;-94
2021/07/30 08:47:19;;;;;;;2.60;2.50;;;32.70;38.50;;;;;;4926514;29;20487;-91
2021/07/30 08:49:44;;;;;;;3.03;2.57;;;31.50;37.00;;;;;;4922674;29;20481;-94
2021/07/30 08:52:17;;;;;;;2.47;2.27;;;31.30;34.60;;;;;;4923939;29;20898;-93
2021/07/30 08:54:42;;;;;;;2.23;2.23;;;32.90;36.80;;;;;;4919812;29;20195;-90
2021/07/30 08:57:08;;;;;;;3.20;3.07;;;;;;;;;;4921966;29;20965;-91
2021/07/30 08:59:38;;;;;;;2.87;2.77;;;31.00;35.00;;;;;;4933036;29;20539;-83
2021/07/30 09:02:04;;;;;;;2.33;2.23;;;32.60;37.00;;;;;;4938484;29;20432;-86
2021/07/30 09:04:30;;;;;;;3.07;2.93;;;31.40;36.40;;;;;;4937417;29;20471;-84
2021/07/30 09:06:57;;;;;;;2.90;2.80;;;29.50;35.80;;;;;;4943080;29;20514;-88
2021/07/30 09:09:24;;;;;;;3.33;3.00;;;31.40;43.30;;;;;;4915729;29;20537;-89
2021/07/30 09:11:57;;;;;;;4.73;2.57;;;30.80;36.50;;;;;;4921720;29;20457;-89
2021/07/30 09:14:36;;;;;;;3.00;2.77;;;;;;;;;;4938899;29;20506;-91
2021/07/30 09:17:05;;;;;;;2.83;2.83;;;;;;;;;;4919201;29;20502;-91
2021/07/30 09:19:31;;;;;;;8.93;3.10;;;;;;;;;;4922493;29;20451;-88
2021/07/30 09:22:04;;;;;;;2.27;2.27;;;;;;;;;;4920168;29;20420;-89
2021/07/30 09:24:41;;;;;;;2.70;2.50;;;;;;;;;;4921705;29;20486;-90
2021/07/30 09:27:08;;;;;;;2.67;2.67;;;;;;;;;;4920834;29;20804;-90
2021/07/30 09:29:37;;;;;;;5.57;3.03;;;;;;;;;;4939537;29;20426;-92
2021/07/30 09:32:10;;;;;;;3.07;2.97;;;;;;;;;;4923433;29;20433;-94
2021/07/30 09:34:37;;;;;;;2.60;2.40;;;;;;;;;;4927397;29;20491;-90
2021/07/30 09:37:06;;;;;;;3.07;2.93;;;29.50;38.50;;;;;;4941519;29;20430;-85
2021/07/30 09:39:35;;;;;;;3.33;3.17;;;31.10;38.50;;;;;;4941802;29;20415;-87
2021/07/30 09:42:07;;;;;;;3.50;3.20;;;29.80;39.40;;;;;;4923126;29;20995;-91
2021/07/30 09:44:54;;;;;;;3.23;3.03;;;30.10;36.60;;;;;;4922245;29;20531;-91
2021/07/30 09:47:27;;;;;;;5.00;3.47;;;31.60;38.00;;;;;;4907182;29;20420;-91
2021/07/30 09:50:00;;;;;;;3.60;3.10;;;30.90;35.50;;;;;;4919247;29;20455;-90
2021/07/30 09:52:28;;;;;;;3.87;3.67;;;31.10;35.90;;;;;;4902693;29;20801;-86
2021/07/30 09:54:59;;;;;;;4.30;3.57;;;31.30;36.60;;;;;;4920836;29;20420;-90
2021/07/30 09:57:33;;;;;;;4.00;3.77;;;30.00;36.50;;;;;;4921993;29;20994;-91
2021/07/30 10:00:13;;;;;;;3.90;3.60;;;29.20;37.20;;;;;;4924271;29;20420;-90
2021/07/30 10:02:44;;;;;;;4.27;3.90;;;29.00;37.90;;;;;;4916148;29;20461;-89
2021/07/30 10:05:13;;;;;;;3.73;3.47;;;28.90;38.70;;;;;;4949566;29;20437;-88
2021/07/30 10:07:41;;;;;;;3.80;3.60;;;28.90;39.90;;;;;;4928961;29;20445;-90
2021/07/30 10:12:47;;;;;;;3.90;3.70;;;29.40;37.90;;;;;;4947213;29;20435;-87
2021/07/30 10:15:15;;;;;;;3.30;3.20;;;31.80;38.70;;;;;;4928812;29;20927;-92
2021/07/30 10:17:44;;;;;;;3.70;3.60;;;31.20;38.90;;;;;;4926466;29;20439;-92
2021/07/30 10:20:12;;;;;;;3.37;3.27;;;31.50;40.90;;;;;;4944140;29;20580;-87
2021/07/30 10:23:03;;;;;;;7.37;3.30;;;28.80;38.30;;;;;;4925603;29;20493;-91
2021/07/30 10:25:32;;;;;;;2.80;2.70;;;30.20;39.10;;;;;;4929451;29;20421;-96
2021/07/30 10:28:36;;;;;;;5.87;5.63;;;28.40;40.50;;;;;;4930668;29;20419;-92
2021/07/30 10:31:21;;;;;;;7.20;3.23;;;28.80;38.90;;;;;;4890741;29;20432;-93
2021/07/30 10:33:57;;;;;;;3.40;3.40;;;29.80;38.10;;;;;;4911926;29;20431;-95
2021/07/30 10:36:42;;;;;;;5.60;5.30;;;;;;;;;;4935820;29;20433;-93
2021/07/30 10:39:18;;;;;;;3.47;3.27;;;;;;;;;;4949605;29;20395;-90
2021/07/30 10:42:15;;;;;;;3.57;3.47;;;31.80;34.60;;;;;;4946979;29;20404;-92
2021/07/30 10:45:23;;;;;;;3.20;3.10;;;30.90;35.20;;;;;;4929963;29;20865;-89
2021/07/30 10:48:19;;;;;;;4.07;3.87;;;30.70;36.60;;;;;;4935911;29;20415;-92
2021/07/30 10:50:51;;;;;;;4.10;3.90;;;30.60;36.60;;;;;;4915511;29;20455;-93
2021/07/30 10:53:50;;;;;;;3.13;3.03;;;29.80;39.10;;;;;;4940848;23;20519;-93
2021/07/30 10:56:22;;;;;;;3.70;3.57;;;30.20;37.00;;;;;;4933450;29;20424;-93
2021/07/30 10:58:56;;;;;;;4.17;3.97;;;29.00;39.10;;;;;;4934669;29;20424;-92
2021/07/30 11:01:27;;;;;;;3.60;3.40;;;28.30;39.20;;;;;;4931987;29;20436;-94
2021/07/30 11:03:58;;;;;;;4.00;3.90;;;30.60;42.30;;;;;;4933759;29;20501;-93
2021/07/30 11:06:33;;;;;;;5.17;4.83;;;26.40;40.80;;;;;;4936885;29;20431;-93
2021/07/30 11:11:56;;;;;;;3.50;3.30;;;29.10;40.80;;;;;;4933473;29;20412;-94
2021/07/30 11:14:23;;;;;;;3.20;3.20;;;30.10;36.30;;;;;;4914922;29;20186;-96
2021/07/30 11:16:56;;;;;;;4.20;3.93;;;31.50;50.50;;;;;;4933929;29;20522;-95
2021/07/30 11:19:29;;;;;;;4.33;4.03;;;32.60;38.70;;;;;;4588753;29;10000636;-92
2021/07/30 11:22:01;;;;;;;3.57;3.57;;;34.90;36.50;;;;;;4938799;29;20227;-95
2021/07/30 11:24:36;;;;;;;3.73;3.40;;;32.80;35.70;;;;;;4945609;29;20463;-92
2021/07/30 11:27:04;;;;;;;3.70;3.43;;;31.90;36.00;;;;;;4934446;29;20483;-93
2021/07/30 11:29:56;;;;;;;4.17;3.50;;;33.10;41.90;;;;;;4915468;29;20440;-94
2021/07/30 11:32:27;;;;;;;3.33;3.30;;;35.50;36.70;;;;;;4909951;29;20428;-92
2021/07/30 11:34:55;;;;;;;3.40;3.30;;;34.50;36.30;;;;;;4914263;29;20440;-91
2021/07/30 11:37:25;;;;;;;3.47;3.37;;;34.00;36.10;;;;;;4926154;29;20423;-89
2021/07/30 11:39:53;;;;;;;3.10;3.10;;;33.00;35.60;;;;;;4905507;29;20444;-90
2021/07/30 11:42:37;;;;;;;4.80;4.60;;;34.30;38.50;;;;;;4921397;29;20412;-89
2021/07/30 11:45:06;;;;;;;3.87;3.67;;;31.60;34.70;;;;;;4906286;29;20807;-90
2021/07/30 11:47:35;;;;;;;3.87;3.70;;;31.30;35.40;;;;;;4923868;29;20946;-89
2021/07/30 11:50:04;;;;;;;3.60;3.50;;;30.80;36.10;;;;;;4905332;29;20424;-87
2021/07/30 11:52:31;;;;;;;4.03;3.90;;;30.30;36.30;;;;;;4903472;29;20975;-86
2021/07/30 11:55:15;;;;;;;4.00;3.80;;;31.10;38.30;;;;;;4904599;29;20427;-86
2021/07/30 11:57:53;;;;;;;3.30;3.23;;;29.30;37.30;;;;;;4921252;29;20915;-93
2021/07/30 12:00:23;;;;;;;9.97;9.20;;;32.30;40.50;;;;;;4908081;29;20463;-93
2021/07/30 12:02:51;;;;;;;4.37;4.17;;;31.60;38.90;;;;;;4906953;29;20474;-92
2021/07/30 12:05:17;;;;;;;5.20;3.50;;;33.20;38.30;;;;;;4925154;29;20480;-87
2021/07/30 12:07:43;;;;;;;3.67;3.47;;;32.30;37.40;;;;;;4924281;29;20408;-90
2021/07/30 12:10:13;;;;;;;3.40;3.30;;;32.10;36.50;;;;;;4925422;29;20427;-89
2021/07/30 12:13:00;;;;;;;8.13;7.43;;;31.00;35.30;;;;;;4908499;29;20652;-92
2021/07/30 12:15:29;;;;;;;4.13;3.93;;;30.40;36.10;;;;;;4911153;29;20412;-94
2021/07/30 12:18:03;;;;;;;3.70;3.40;;;31.00;38.70;;;;;;4908762;29;20426;-91
2021/07/30 12:20:34;;;;;;;4.23;4.07;;;30.60;36.10;;;;;;4911456;29;20435;-89
2021/07/30 12:23:18;;;;;;;3.90;3.63;;;30.00;45.00;;;;;;4959582;23;20487;-92
2021/07/30 12:25:46;;;;;;;3.90;3.77;;;30.40;36.10;;;;;;4928203;29;20420;-92
2021/07/30 12:28:16;;;;;;;3.60;3.50;;;29.20;41.30;;;;;;4912884;29;20431;-93
2021/07/30 12:30:45;;;;;;;3.90;3.70;;;31.10;42.20;;;;;;4927353;29;21027;-91
2021/07/30 12:33:29;;;;;;;4.20;4.00;;;29.20;40.30;;;;;;4927564;29;20401;-91
2021/07/30 12:36:12;;;;;;;3.90;3.70;;;29.90;41.70;;;;;;4925549;29;20769;-89
2021/07/30 12:38:53;;;;;;;5.57;3.67;;;29.50;38.70;;;;;;4910498;29;20419;-95
2021/07/30 12:41:21;;;;;;;4.07;3.90;;;30.00;43.70;;;;;;4910156;29;20618;-90
2021/07/30 12:43:48;;;;;;;3.37;3.17;;;30.50;41.60;;;;;;4927732;29;20464;-88
2021/07/30 12:46:35;;;;;;;3.13;3.00;;;32.20;36.70;;;;;;4926548;29;20409;-89
2021/07/30 12:49:01;;;;;;;3.93;3.63;;;30.60;35.70;;;;;;4911215;29;20420;-92
2021/07/30 12:51:27;;;;;;;4.70;4.30;;;;;;;;;;4907243;29;20416;-87
2021/07/30 12:54:02;;;;;;;3.17;2.97;;;30.40;39.30;;;;;;4924983;29;20259;-92
2021/07/30 12:56:32;;;;;;;3.23;3.13;;;32.80;36.30;;;;;;4906734;29;20464;-91
2021/07/30 12:58:58;;;;;;;3.60;3.50;;;33.40;37.20;;;;;;4922617;29;20411;-90
2021/07/30 13:01:24;;;;;;;3.93;3.80;;;32.10;35.40;;;;;;4906497;29;20723;-90
2021/07/30 13:04:00;;;;;;;4.30;4.13;;;31.50;33.00;;;;;;4903298;29;20476;-91
2021/07/30 13:06:26;;;;;;;3.60;3.50;;;31.00;35.20;;;;;;4928082;29;20167;-87
2021/07/30 13:08:52;;;;;;;2.60;2.60;;;30.60;36.80;;;;;;4943262;29;20421;-92
2021/07/30 13:11:23;;;;;;;3.90;3.60;;;29.90;34.90;;;;;;4923681;29;20426;-90
2021/07/30 13:13:49;;;;;;;3.50;3.17;;;29.70;34.80;;;;;;4924275;29;20627;-92
2021/07/30 13:16:15;;;;;;;3.70;3.50;;;;;;;;;;4926557;29;20424;-92
2021/07/30 13:18:41;;;;;;;3.60;3.43;;;30.70;48.50;;;;;;5009411;23;20185;-91
2021/07/30 13:21:09;;;;;;;3.60;3.50;;;30.60;38.10;;;;;;4676893;23;10001218;-95
2021/07/30 13:23:35;;;;;;;3.90;3.80;;;30.50;39.60;;;;;;4895645;29;20572;-89
2021/07/30 13:26:01;;;;;;;3.60;3.50;;;;;;;;;;4930176;29;20453;-90
2021/07/30 13:28:26;;;;;;;3.20;3.20;;;31.20;34.20;;;;;;4925471;23;20244;-93
2021/07/30 13:30:54;;;;;;;2.60;2.60;;;;;;;;;;4924569;29;20423;-90
2021/07/30 13:33:20;;;;;;;8.87;8.17;;;31.60;33.50;;;;;;4918906;29;20171;-88
2021/07/30 13:35:45;;;;;;;3.47;3.37;;;33.20;35.70;;;;;;4916862;29;20830;-91
2021/07/30 13:38:11;;;;;;;3.80;3.60;;;33.90;36.80;;;;;;4920114;29;20179;-90